Terminal Aerodrome Forecast
Issued by NWS Kansas City/Pleasant Hill, MO

Home | Current Version | Previous Version | Text Only | Print | Product List | Glossary On
Versions: 1 2 3 4 5 6 7 8 9 10 11 12 13 14 15 16 17 18 19
000
FTUS43 KEAX 281100
TAFMCI
TAF
KMCI 281120Z 2812/2912 14007KT P6SM VCSH SCT070 BKN150
     FM281400 16009KT P6SM BKN150
     FM281800 16010KT P6SM BKN060
     FM290800 16008KT P6SM VCTS BKN060CB=

USA.gov is the U.S. government's official web portal to all federal, state and local government web resources and services.